Terminal Aerodrome Forecast
Issued by NWS

Home | Current Version | Previous Version | Text Only | Print | Product List | Glossary On
Versions: 1 2 3 4 5 6 7 8 9 10 11 12 13
000
FTUS42 TJSJ 032325
TAFJBQ
TAF
TJBQ 032325Z 0400/0424 08019G26KT P6SM SCT023 SCT060
     FM041330 08020KT P6SM SCT025 SCT040
     FM042300 10013KT P6SM FEW025
      AMD NOT SKED 0402/0411=

USA.gov is the U.S. government's official web portal to all federal, state and local government web resources and services.